APO7577 EGLL-DNAA
Flight info
| Callsign | APO7577 |
|---|---|
| Flight time | N/A |
| Altitude | 37000 |
| Route | MAXIT Y803 MID L151 SITET UN859 SOPIL DCT BALAN DCT EVPOK DCT NARAK DCT GAI DCT LOMRA DCT ROCAN DCT PUMAL N859 MOGIL UZ333 ZEM UM989 BSA UJ36 TGU UM508 BOD UR978 AS DCT MOLIT UA604 MIMBA A604 KAN DCT KUA V456 OXORU DCT ABC |
| Aircraft | B772/H-SDE2E3FGHIJ5LORVWXY/LB1D1 |
Departure
| Time | N/A |
|---|---|
| Airport | London Heathrow Airport (EGLL) |
Arrival
| Time | 2026-04-26 17:33 |
|---|---|
| Airport | Nnamdi Azikiwe International Airport (DNAA) |
| Time | Latitude | Longitude | Altitude | Speed | Heading |
|---|---|---|---|---|---|
| 2026-04-26 14:35 | 30.62300 | 6.46933 | 36898 ft | 470 kts | 179° |
| 2026-04-26 14:36 | 30.59228 | 6.47396 | 36902 ft | 472 kts | 179° |
| 2026-04-26 14:36 | 30.58112 | 6.47565 | 36900 ft | 472 kts | 179° |
| 2026-04-26 14:37 | 30.55325 | 6.47994 | 36893 ft | 473 kts | 179° |
| 2026-04-26 14:37 | 30.48809 | 6.49015 | 36891 ft | 471 kts | 179° |
| 2026-04-26 14:38 | 30.42325 | 6.50009 | 36885 ft | 468 kts | 179° |
| 2026-04-26 14:38 | 30.35886 | 6.50983 | 36880 ft | 465 kts | 179° |
| 2026-04-26 14:39 | 30.29473 | 6.51949 | 36875 ft | 464 kts | 179° |
| 2026-04-26 14:39 | 30.23061 | 6.52915 | 36876 ft | 464 kts | 179° |
| 2026-04-26 14:40 | 30.16689 | 6.53875 | 36876 ft | 465 kts | 180° |
| 2026-04-26 14:40 | 30.10260 | 6.54843 | 36874 ft | 466 kts | 180° |
| 2026-04-26 14:41 | 30.03820 | 6.55812 | 36871 ft | 467 kts | 180° |
| 2026-04-26 14:41 | 29.97376 | 6.56780 | 36865 ft | 468 kts | 180° |
| 2026-04-26 14:42 | 29.90908 | 6.57751 | 36864 ft | 468 kts | 180° |
| 2026-04-26 14:42 | 29.84438 | 6.58721 | 36859 ft | 469 kts | 180° |
| 2026-04-26 14:43 | 29.77959 | 6.59691 | 36858 ft | 469 kts | 180° |
| 2026-04-26 14:43 | 29.71519 | 6.60654 | 36855 ft | 469 kts | 180° |
| 2026-04-26 14:44 | 29.65046 | 6.61620 | 36855 ft | 469 kts | 180° |
| 2026-04-26 14:44 | 29.58554 | 6.62584 | 36857 ft | 470 kts | 180° |
| 2026-04-26 14:45 | 29.52070 | 6.63548 | 36854 ft | 470 kts | 180° |
| 2026-04-26 14:45 | 29.45569 | 6.64515 | 36851 ft | 471 kts | 180° |
| 2026-04-26 14:46 | 29.39063 | 6.65482 | 36857 ft | 471 kts | 181° |
| 2026-04-26 14:46 | 29.32553 | 6.66447 | 36846 ft | 472 kts | 181° |
| 2026-04-26 14:47 | 29.26046 | 6.67411 | 36847 ft | 472 kts | 181° |
| 2026-04-26 14:47 | 29.19558 | 6.68371 | 36846 ft | 472 kts | 181° |
| 2026-04-26 14:48 | 29.13031 | 6.69336 | 36839 ft | 473 kts | 181° |
| 2026-04-26 14:48 | 29.06496 | 6.70299 | 36843 ft | 474 kts | 181° |
| 2026-04-26 14:49 | 28.99949 | 6.71265 | 36840 ft | 474 kts | 181° |
| 2026-04-26 14:49 | 28.93398 | 6.72229 | 36845 ft | 475 kts | 181° |
| 2026-04-26 14:50 | 28.86835 | 6.73194 | 36832 ft | 475 kts | 181° |
| 2026-04-26 14:50 | 28.80312 | 6.74150 | 36845 ft | 476 kts | 182° |
| 2026-04-26 14:51 | 28.73736 | 6.75114 | 36843 ft | 476 kts | 182° |
| 2026-04-26 14:51 | 28.67146 | 6.76080 | 36840 ft | 477 kts | 182° |
| 2026-04-26 14:52 | 28.60562 | 6.77042 | 36837 ft | 477 kts | 182° |
| 2026-04-26 14:52 | 28.53973 | 6.78004 | 36841 ft | 478 kts | 182° |
| 2026-04-26 14:53 | 28.47371 | 6.78967 | 36837 ft | 478 kts | 182° |
| 2026-04-26 14:53 | 28.40770 | 6.79928 | 36837 ft | 478 kts | 182° |
| 2026-04-26 14:54 | 28.34195 | 6.80884 | 36838 ft | 479 kts | 182° |
| 2026-04-26 14:54 | 28.27564 | 6.81845 | 36837 ft | 480 kts | 182° |
| 2026-04-26 14:55 | 28.20930 | 6.82804 | 36834 ft | 480 kts | 182° |
| 2026-04-26 14:55 | 28.14295 | 6.83763 | 36838 ft | 481 kts | 182° |
| 2026-04-26 14:56 | 28.07698 | 6.84612 | 36837 ft | 479 kts | 184° |
| 2026-04-26 14:56 | 28.01051 | 6.85327 | 36836 ft | 479 kts | 185° |
| 2026-04-26 14:57 | 27.94414 | 6.86032 | 36837 ft | 479 kts | 185° |
| 2026-04-26 14:57 | 27.87785 | 6.86757 | 36831 ft | 479 kts | 185° |
| 2026-04-26 14:58 | 27.81150 | 6.87492 | 36845 ft | 479 kts | 185° |
| 2026-04-26 14:58 | 27.74507 | 6.88227 | 36838 ft | 480 kts | 185° |
| 2026-04-26 14:59 | 27.67896 | 6.88957 | 36848 ft | 481 kts | 185° |
| 2026-04-26 14:59 | 27.61218 | 6.89694 | 36857 ft | 482 kts | 185° |
| 2026-04-26 15:00 | 27.55631 | 6.90312 | 36866 ft | 482 kts | 185° |
| 2026-04-26 15:00 | 27.47853 | 6.91167 | 36866 ft | 483 kts | 185° |
| 2026-04-26 15:01 | 27.41147 | 6.91904 | 36858 ft | 484 kts | 185° |
| 2026-04-26 15:01 | 27.34486 | 6.92636 | 36860 ft | 484 kts | 185° |
| 2026-04-26 15:02 | 27.27778 | 6.93372 | 36861 ft | 484 kts | 185° |
| 2026-04-26 15:02 | 27.21078 | 6.94107 | 36842 ft | 484 kts | 185° |
| 2026-04-26 15:03 | 27.14366 | 6.94841 | 36850 ft | 484 kts | 185° |
| 2026-04-26 15:03 | 27.07696 | 6.95570 | 36852 ft | 485 kts | 185° |
| 2026-04-26 15:04 | 27.00975 | 6.96303 | 36852 ft | 485 kts | 185° |
| 2026-04-26 15:04 | 26.94251 | 6.97038 | 36871 ft | 486 kts | 185° |
| 2026-04-26 15:05 | 26.87516 | 6.97779 | 36865 ft | 486 kts | 185° |
| 2026-04-26 15:05 | 26.80780 | 6.98502 | 36848 ft | 486 kts | 185° |
| 2026-04-26 15:06 | 26.74035 | 6.99234 | 36856 ft | 486 kts | 185° |
| 2026-04-26 15:06 | 26.67311 | 6.99971 | 36820 ft | 483 kts | 185° |
| 2026-04-26 15:07 | 26.57299 | 7.01050 | 36871 ft | 484 kts | 185° |
| 2026-04-26 15:07 | 26.50539 | 7.01749 | 36848 ft | 491 kts | 185° |
| 2026-04-26 15:08 | 26.43775 | 7.02496 | 36854 ft | 491 kts | 185° |
| 2026-04-26 15:08 | 26.36978 | 7.03244 | 36864 ft | 490 kts | 185° |
| 2026-04-26 15:09 | 26.30203 | 7.03976 | 36873 ft | 488 kts | 185° |
| 2026-04-26 15:09 | 26.23441 | 7.04700 | 36877 ft | 488 kts | 185° |
| 2026-04-26 15:10 | 26.18968 | 7.05180 | 36882 ft | 487 kts | 185° |
| 2026-04-26 15:10 | 26.09981 | 7.06141 | 36879 ft | 487 kts | 185° |
| 2026-04-26 15:11 | 26.03236 | 7.06860 | 36880 ft | 486 kts | 184° |
| 2026-04-26 15:11 | 25.96503 | 7.07587 | 36908 ft | 489 kts | 184° |
| 2026-04-26 15:12 | 25.90827 | 7.08213 | 36900 ft | 490 kts | 184° |
| 2026-04-26 15:12 | 25.84086 | 7.08957 | 36918 ft | 490 kts | 184° |
| 2026-04-26 15:13 | 25.77294 | 7.09697 | 36931 ft | 491 kts | 184° |
| 2026-04-26 15:13 | 25.70502 | 7.10435 | 36933 ft | 490 kts | 184° |
| 2026-04-26 15:14 | 25.63713 | 7.11173 | 36930 ft | 489 kts | 184° |
| 2026-04-26 15:14 | 25.56949 | 7.11907 | 36933 ft | 488 kts | 184° |
| 2026-04-26 15:15 | 25.50182 | 7.12640 | 36947 ft | 487 kts | 184° |
| 2026-04-26 15:15 | 25.43432 | 7.13368 | 36933 ft | 487 kts | 185° |
| 2026-04-26 15:16 | 25.36681 | 7.14097 | 36939 ft | 487 kts | 184° |
| 2026-04-26 15:16 | 25.29935 | 7.14825 | 36938 ft | 486 kts | 184° |
| 2026-04-26 15:17 | 25.24338 | 7.15428 | 36944 ft | 486 kts | 184° |
| 2026-04-26 15:17 | 25.16503 | 7.16270 | 36948 ft | 486 kts | 184° |
| 2026-04-26 15:18 | 25.09776 | 7.16991 | 36940 ft | 486 kts | 184° |
| 2026-04-26 15:18 | 25.03036 | 7.17712 | 36932 ft | 486 kts | 184° |
| 2026-04-26 15:19 | 24.96296 | 7.18433 | 36939 ft | 486 kts | 184° |
| 2026-04-26 15:19 | 24.89549 | 7.19166 | 36938 ft | 486 kts | 184° |
| 2026-04-26 15:20 | 24.82844 | 7.19894 | 36931 ft | 486 kts | 184° |
| 2026-04-26 15:20 | 24.76121 | 7.20620 | 36928 ft | 485 kts | 184° |
| 2026-04-26 15:21 | 24.69394 | 7.21342 | 36928 ft | 484 kts | 184° |
| 2026-04-26 15:21 | 24.62729 | 7.22055 | 36930 ft | 484 kts | 184° |
| 2026-04-26 15:22 | 24.56025 | 7.22772 | 36926 ft | 483 kts | 184° |
| 2026-04-26 15:22 | 24.49329 | 7.23486 | 36994 ft | 486 kts | 185° |
| 2026-04-26 15:23 | 24.47976 | 7.23627 | 37101 ft | 486 kts | 185° |
| 2026-04-26 15:23 | 24.46020 | 7.23831 | 37318 ft | 484 kts | 185° |
| 2026-04-26 15:23 | 24.42677 | 7.24180 | 37760 ft | 481 kts | 185° |
| 2026-04-26 15:24 | 24.39351 | 7.24531 | 38241 ft | 477 kts | 185° |
| 2026-04-26 15:24 | 24.36064 | 7.24882 | 38678 ft | 473 kts | 185° |
| 2026-04-26 15:24 | 24.32838 | 7.25227 | 38997 ft | 471 kts | 185° |
| 2026-04-26 15:24 | 24.29577 | 7.25574 | 39260 ft | 470 kts | 185° |
| 2026-04-26 15:25 | 24.26324 | 7.25920 | 39496 ft | 470 kts | 185° |
| 2026-04-26 15:25 | 24.24122 | 7.26153 | 39614 ft | 471 kts | 185° |
| 2026-04-26 15:25 | 24.19763 | 7.26615 | 39945 ft | 470 kts | 185° |
| 2026-04-26 15:25 | 24.16546 | 7.26957 | 40234 ft | 468 kts | 185° |
| 2026-04-26 15:26 | 24.13313 | 7.27302 | 40495 ft | 467 kts | 185° |
| 2026-04-26 15:26 | 24.10080 | 7.27645 | 40711 ft | 467 kts | 185° |
| 2026-04-26 15:26 | 24.06839 | 7.27989 | 40844 ft | 467 kts | 184° |
| 2026-04-26 15:26 | 24.03591 | 7.28331 | 40897 ft | 469 kts | 184° |
| 2026-04-26 15:27 | 23.97098 | 7.29020 | 40934 ft | 468 kts | 184° |
| 2026-04-26 15:27 | 23.90626 | 7.29708 | 40930 ft | 466 kts | 184° |
| 2026-04-26 15:28 | 23.84173 | 7.30390 | 40926 ft | 465 kts | 184° |
| 2026-04-26 15:28 | 23.77739 | 7.31071 | 40925 ft | 464 kts | 184° |
| 2026-04-26 15:29 | 23.71328 | 7.31746 | 40921 ft | 465 kts | 184° |
| 2026-04-26 15:30 | 23.58401 | 7.33110 | 40906 ft | 467 kts | 184° |
| 2026-04-26 15:30 | 23.51935 | 7.33791 | 40908 ft | 467 kts | 184° |
| 2026-04-26 15:31 | 23.42229 | 7.35075 | 40913 ft | 470 kts | 181° |
| 2026-04-26 15:32 | 23.33600 | 7.36381 | 40906 ft | 470 kts | 181° |
| 2026-04-26 15:32 | 23.26027 | 7.37493 | 40902 ft | 469 kts | 182° |
| 2026-04-26 15:33 | 23.19593 | 7.38421 | 40900 ft | 469 kts | 182° |
| 2026-04-26 15:33 | 23.13127 | 7.39350 | 40898 ft | 469 kts | 181° |
| 2026-04-26 15:34 | 23.06655 | 7.40279 | 40900 ft | 468 kts | 181° |
| 2026-04-26 15:34 | 23.00195 | 7.41207 | 40896 ft | 469 kts | 182° |
| 2026-04-26 15:35 | 22.93727 | 7.42134 | 40893 ft | 469 kts | 181° |
| 2026-04-26 15:35 | 22.87258 | 7.43062 | 40890 ft | 468 kts | 181° |
| 2026-04-26 15:36 | 22.80795 | 7.43988 | 40896 ft | 468 kts | 181° |
| 2026-04-26 15:36 | 22.74346 | 7.44912 | 40894 ft | 467 kts | 181° |
| 2026-04-26 15:37 | 22.67896 | 7.45834 | 40887 ft | 467 kts | 181° |
| 2026-04-26 15:37 | 22.61454 | 7.46753 | 40885 ft | 467 kts | 181° |
| 2026-04-26 15:38 | 22.55023 | 7.47671 | 40885 ft | 466 kts | 181° |
| 2026-04-26 15:38 | 22.48584 | 7.48589 | 40887 ft | 466 kts | 181° |
| 2026-04-26 15:39 | 22.42188 | 7.49500 | 40875 ft | 466 kts | 181° |
| 2026-04-26 15:39 | 22.36851 | 7.50260 | 40883 ft | 466 kts | 181° |
| 2026-04-26 15:40 | 22.29334 | 7.51328 | 40875 ft | 465 kts | 181° |
| 2026-04-26 15:40 | 22.22913 | 7.52240 | 40873 ft | 465 kts | 181° |
| 2026-04-26 15:41 | 22.16495 | 7.53150 | 40870 ft | 466 kts | 181° |
| 2026-04-26 15:41 | 22.10100 | 7.54056 | 40863 ft | 466 kts | 181° |
| 2026-04-26 15:42 | 22.03663 | 7.54968 | 40867 ft | 466 kts | 181° |
| 2026-04-26 15:42 | 21.97216 | 7.55881 | 40861 ft | 467 kts | 181° |
| 2026-04-26 15:43 | 21.90775 | 7.56791 | 40856 ft | 467 kts | 180° |
| 2026-04-26 15:44 | 21.81106 | 7.58157 | 40856 ft | 467 kts | 180° |
| 2026-04-26 15:44 | 21.71423 | 7.59522 | 40854 ft | 467 kts | 180° |
| 2026-04-26 15:45 | 21.61783 | 7.60880 | 40845 ft | 467 kts | 180° |
| 2026-04-26 15:46 | 21.52108 | 7.62241 | 40848 ft | 467 kts | 180° |
| 2026-04-26 15:46 | 21.46746 | 7.62994 | 40840 ft | 467 kts | 180° |
| 2026-04-26 15:47 | 21.35984 | 7.64504 | 40839 ft | 468 kts | 180° |
| 2026-04-26 15:48 | 21.29554 | 7.65406 | 40831 ft | 468 kts | 180° |
| 2026-04-26 15:48 | 21.23093 | 7.66311 | 40831 ft | 468 kts | 180° |
| 2026-04-26 15:49 | 21.16629 | 7.67216 | 40826 ft | 468 kts | 180° |
| 2026-04-26 15:49 | 21.10167 | 7.68119 | 40833 ft | 468 kts | 180° |
| 2026-04-26 15:50 | 21.03694 | 7.69023 | 40814 ft | 469 kts | 180° |
| 2026-04-26 15:50 | 20.97214 | 7.69926 | 40813 ft | 469 kts | 180° |
| 2026-04-26 15:51 | 20.90737 | 7.70551 | 40825 ft | 467 kts | 183° |
| 2026-04-26 15:51 | 20.84255 | 7.71044 | 40823 ft | 467 kts | 183° |
| 2026-04-26 15:52 | 20.77812 | 7.71537 | 40814 ft | 467 kts | 183° |
| 2026-04-26 15:52 | 20.71287 | 7.72057 | 40812 ft | 467 kts | 182° |
| 2026-04-26 15:53 | 20.64831 | 7.72579 | 40803 ft | 468 kts | 182° |
| 2026-04-26 15:53 | 20.58343 | 7.73106 | 40802 ft | 468 kts | 182° |
| 2026-04-26 15:54 | 20.51847 | 7.73631 | 40798 ft | 467 kts | 182° |
| 2026-04-26 15:54 | 20.45357 | 7.74155 | 40803 ft | 467 kts | 182° |
| 2026-04-26 15:55 | 20.38868 | 7.74678 | 40796 ft | 467 kts | 182° |
| 2026-04-26 15:55 | 20.32408 | 7.75199 | 40799 ft | 467 kts | 182° |
| 2026-04-26 15:56 | 20.25921 | 7.75720 | 40799 ft | 467 kts | 182° |
| 2026-04-26 15:56 | 20.19435 | 7.76242 | 40802 ft | 467 kts | 182° |
| 2026-04-26 15:57 | 20.12940 | 7.76764 | 40796 ft | 468 kts | 182° |
| 2026-04-26 15:57 | 20.07551 | 7.77197 | 40800 ft | 468 kts | 182° |
| 2026-04-26 15:58 | 20.01052 | 7.77718 | 40797 ft | 468 kts | 182° |
| 2026-04-26 15:58 | 19.94562 | 7.78238 | 40801 ft | 467 kts | 182° |
| 2026-04-26 15:59 | 19.88069 | 7.78758 | 40795 ft | 468 kts | 182° |
| 2026-04-26 15:59 | 19.81570 | 7.79279 | 40797 ft | 468 kts | 182° |
| 2026-04-26 16:00 | 19.75072 | 7.79798 | 40790 ft | 468 kts | 181° |
| 2026-04-26 16:00 | 19.68566 | 7.80318 | 40784 ft | 469 kts | 181° |
| 2026-04-26 16:01 | 19.62092 | 7.80835 | 40783 ft | 469 kts | 181° |
| 2026-04-26 16:01 | 19.55571 | 7.81356 | 40784 ft | 469 kts | 181° |
| 2026-04-26 16:02 | 19.49066 | 7.81875 | 40782 ft | 468 kts | 181° |
| 2026-04-26 16:02 | 19.45854 | 7.82137 | 40903 ft | 468 kts | 183° |
| 2026-04-26 16:02 | 19.42607 | 7.82405 | 40842 ft | 468 kts | 183° |
| 2026-04-26 16:03 | 19.36120 | 7.82942 | 40790 ft | 466 kts | 183° |
| 2026-04-26 16:03 | 19.29673 | 7.83475 | 40787 ft | 463 kts | 183° |
| 2026-04-26 16:04 | 19.23262 | 7.84002 | 40781 ft | 461 kts | 183° |
| 2026-04-26 16:04 | 19.16867 | 7.84526 | 40791 ft | 461 kts | 183° |
| 2026-04-26 16:05 | 19.10466 | 7.85050 | 40787 ft | 461 kts | 183° |
| 2026-04-26 16:05 | 19.04101 | 7.85570 | 40790 ft | 462 kts | 182° |
| 2026-04-26 16:06 | 18.97679 | 7.86096 | 40788 ft | 463 kts | 182° |
| 2026-04-26 16:06 | 18.91242 | 7.86623 | 40785 ft | 464 kts | 182° |
| 2026-04-26 16:07 | 18.84797 | 7.87151 | 40788 ft | 464 kts | 182° |
| 2026-04-26 16:07 | 18.78403 | 7.87674 | 40787 ft | 463 kts | 182° |
| 2026-04-26 16:08 | 18.71972 | 7.88199 | 40791 ft | 463 kts | 182° |
| 2026-04-26 16:08 | 18.65545 | 7.88724 | 40787 ft | 463 kts | 182° |
| 2026-04-26 16:09 | 18.59110 | 7.89248 | 40782 ft | 463 kts | 182° |
| 2026-04-26 16:09 | 18.52688 | 7.89772 | 40779 ft | 462 kts | 182° |
| 2026-04-26 16:10 | 18.46271 | 7.90294 | 40783 ft | 462 kts | 182° |
| 2026-04-26 16:10 | 18.39910 | 7.90812 | 40781 ft | 462 kts | 182° |
| 2026-04-26 16:11 | 18.33499 | 7.91333 | 40789 ft | 461 kts | 182° |
| 2026-04-26 16:11 | 18.27101 | 7.91852 | 40780 ft | 461 kts | 182° |
| 2026-04-26 16:12 | 18.20694 | 7.92371 | 40791 ft | 461 kts | 182° |
| 2026-04-26 16:12 | 18.11118 | 7.93149 | 40789 ft | 462 kts | 182° |
| 2026-04-26 16:13 | 18.04707 | 7.93668 | 40790 ft | 462 kts | 182° |
| 2026-04-26 16:13 | 17.98288 | 7.94187 | 40784 ft | 462 kts | 182° |
| 2026-04-26 16:14 | 17.91866 | 7.94707 | 40792 ft | 462 kts | 182° |
| 2026-04-26 16:15 | 17.82236 | 7.95486 | 40792 ft | 462 kts | 182° |
| 2026-04-26 16:15 | 17.75817 | 7.96004 | 40795 ft | 462 kts | 181° |
| 2026-04-26 16:16 | 17.66226 | 7.96778 | 40794 ft | 463 kts | 181° |
| 2026-04-26 16:16 | 17.59795 | 7.97296 | 40796 ft | 463 kts | 181° |
| 2026-04-26 16:17 | 17.53366 | 7.97814 | 40794 ft | 463 kts | 181° |
| 2026-04-26 16:17 | 17.46939 | 7.98332 | 40790 ft | 463 kts | 181° |
| 2026-04-26 16:18 | 17.37297 | 7.99107 | 40794 ft | 463 kts | 181° |
| 2026-04-26 16:19 | 17.27694 | 7.99879 | 40811 ft | 463 kts | 181° |
| 2026-04-26 16:20 | 17.18043 | 8.00653 | 40820 ft | 464 kts | 181° |
| 2026-04-26 16:20 | 17.08375 | 8.01428 | 40845 ft | 464 kts | 181° |
| 2026-04-26 16:21 | 17.01930 | 8.01945 | 40852 ft | 464 kts | 181° |
| 2026-04-26 16:21 | 16.95528 | 8.02467 | 40850 ft | 465 kts | 181° |
| 2026-04-26 16:22 | 16.89071 | 8.03083 | 40864 ft | 466 kts | 180° |
| 2026-04-26 16:22 | 16.82620 | 8.03726 | 40846 ft | 466 kts | 180° |
| 2026-04-26 16:23 | 16.76167 | 8.04360 | 40827 ft | 466 kts | 180° |
| 2026-04-26 16:23 | 16.69710 | 8.04986 | 40807 ft | 466 kts | 180° |
| 2026-04-26 16:24 | 16.63277 | 8.05606 | 40796 ft | 466 kts | 180° |
| 2026-04-26 16:24 | 16.56818 | 8.06229 | 40785 ft | 465 kts | 180° |
| 2026-04-26 16:25 | 16.50371 | 8.06850 | 40787 ft | 465 kts | 180° |
| 2026-04-26 16:25 | 16.43917 | 8.07471 | 40786 ft | 465 kts | 180° |
| 2026-04-26 16:26 | 16.38553 | 8.07987 | 40785 ft | 465 kts | 180° |
| 2026-04-26 16:26 | 16.31019 | 8.08712 | 40788 ft | 465 kts | 180° |
| 2026-04-26 16:27 | 16.24591 | 8.09329 | 40791 ft | 464 kts | 180° |
| 2026-04-26 16:27 | 16.18191 | 8.09944 | 40786 ft | 464 kts | 180° |
| 2026-04-26 16:28 | 16.11754 | 8.10561 | 40791 ft | 464 kts | 180° |
| 2026-04-26 16:28 | 16.05311 | 8.11179 | 40788 ft | 464 kts | 180° |
| 2026-04-26 16:29 | 15.98886 | 8.11795 | 40788 ft | 464 kts | 180° |
| 2026-04-26 16:29 | 15.92458 | 8.12411 | 40784 ft | 464 kts | 180° |
| 2026-04-26 16:30 | 15.86029 | 8.13026 | 40782 ft | 463 kts | 179° |
| 2026-04-26 16:30 | 15.79647 | 8.13637 | 40785 ft | 463 kts | 179° |
| 2026-04-26 16:31 | 15.73225 | 8.14250 | 40783 ft | 464 kts | 179° |
| 2026-04-26 16:31 | 15.66799 | 8.14864 | 40785 ft | 464 kts | 179° |
| 2026-04-26 16:32 | 15.61410 | 8.15379 | 40783 ft | 464 kts | 179° |
| 2026-04-26 16:32 | 15.53932 | 8.16092 | 40780 ft | 464 kts | 179° |
| 2026-04-26 16:33 | 15.47497 | 8.16706 | 40781 ft | 464 kts | 179° |
| 2026-04-26 16:33 | 15.41062 | 8.17319 | 40779 ft | 464 kts | 179° |
| 2026-04-26 16:34 | 15.34632 | 8.17932 | 40775 ft | 464 kts | 179° |
| 2026-04-26 16:34 | 15.28232 | 8.18541 | 40777 ft | 464 kts | 179° |
| 2026-04-26 16:35 | 15.21800 | 8.19153 | 40777 ft | 464 kts | 179° |
| 2026-04-26 16:35 | 15.15374 | 8.19764 | 40778 ft | 463 kts | 179° |
| 2026-04-26 16:36 | 15.08956 | 8.20373 | 40779 ft | 463 kts | 179° |
| 2026-04-26 16:36 | 15.02536 | 8.20983 | 40777 ft | 463 kts | 179° |
| 2026-04-26 16:37 | 14.96165 | 8.21587 | 40778 ft | 462 kts | 179° |
| 2026-04-26 16:37 | 14.90804 | 8.22096 | 40781 ft | 462 kts | 179° |
| 2026-04-26 16:38 | 14.83370 | 8.22801 | 40780 ft | 461 kts | 178° |
| 2026-04-26 16:38 | 14.76986 | 8.23405 | 40732 ft | 461 kts | 178° |
| 2026-04-26 16:39 | 14.70629 | 8.24006 | 40778 ft | 462 kts | 177° |
| 2026-04-26 16:39 | 14.64213 | 8.24613 | 40788 ft | 464 kts | 177° |
| 2026-04-26 16:40 | 14.57770 | 8.25222 | 40790 ft | 466 kts | 177° |
| 2026-04-26 16:40 | 14.51295 | 8.25834 | 40786 ft | 468 kts | 177° |
| 2026-04-26 16:41 | 14.44804 | 8.26447 | 40788 ft | 469 kts | 177° |
| 2026-04-26 16:41 | 14.38297 | 8.27062 | 40788 ft | 470 kts | 177° |
| 2026-04-26 16:42 | 14.31787 | 8.27676 | 40788 ft | 470 kts | 177° |
| 2026-04-26 16:42 | 14.25269 | 8.28291 | 40790 ft | 470 kts | 177° |
| 2026-04-26 16:43 | 14.18800 | 8.28900 | 40792 ft | 469 kts | 177° |
| 2026-04-26 16:43 | 14.12295 | 8.29513 | 40792 ft | 468 kts | 177° |
| 2026-04-26 16:44 | 14.05808 | 8.30124 | 40794 ft | 468 kts | 177° |
| 2026-04-26 16:44 | 13.99311 | 8.30735 | 40795 ft | 468 kts | 177° |
| 2026-04-26 16:45 | 13.92864 | 8.31340 | 40799 ft | 468 kts | 177° |
| 2026-04-26 16:45 | 13.86371 | 8.31951 | 40802 ft | 468 kts | 177° |
| 2026-04-26 16:46 | 13.79895 | 8.32559 | 40804 ft | 467 kts | 177° |
| 2026-04-26 16:46 | 13.73417 | 8.33167 | 40804 ft | 467 kts | 177° |
| 2026-04-26 16:47 | 13.66943 | 8.33778 | 40805 ft | 467 kts | 177° |
| 2026-04-26 16:47 | 13.60475 | 8.34389 | 40809 ft | 466 kts | 177° |
| 2026-04-26 16:48 | 13.54010 | 8.34999 | 40805 ft | 466 kts | 177° |
| 2026-04-26 16:48 | 13.47584 | 8.35604 | 40809 ft | 466 kts | 177° |
| 2026-04-26 16:49 | 13.42182 | 8.36113 | 40810 ft | 465 kts | 177° |
| 2026-04-26 16:49 | 13.35722 | 8.36721 | 40812 ft | 465 kts | 177° |
| 2026-04-26 16:50 | 13.29266 | 8.37329 | 40812 ft | 465 kts | 177° |
| 2026-04-26 16:50 | 13.22867 | 8.37931 | 40821 ft | 465 kts | 176° |
| 2026-04-26 16:51 | 13.16423 | 8.38537 | 40820 ft | 465 kts | 176° |
| 2026-04-26 16:51 | 13.09985 | 8.39142 | 40826 ft | 465 kts | 176° |
| 2026-04-26 16:52 | 13.04630 | 8.39655 | 40825 ft | 465 kts | 176° |
| 2026-04-26 16:52 | 12.97106 | 8.40409 | 40824 ft | 464 kts | 176° |
| 2026-04-26 16:53 | 12.90666 | 8.41052 | 40826 ft | 464 kts | 176° |
| 2026-04-26 16:53 | 12.84231 | 8.41692 | 40824 ft | 464 kts | 176° |
| 2026-04-26 16:54 | 12.77797 | 8.42330 | 40825 ft | 464 kts | 176° |
| 2026-04-26 16:54 | 12.71402 | 8.42960 | 40826 ft | 464 kts | 176° |
| 2026-04-26 16:55 | 12.64949 | 8.43592 | 40826 ft | 465 kts | 176° |
| 2026-04-26 16:55 | 12.58517 | 8.44222 | 40819 ft | 465 kts | 176° |
| 2026-04-26 16:56 | 12.48844 | 8.45171 | 40826 ft | 465 kts | 176° |
| 2026-04-26 16:57 | 12.42398 | 8.45803 | 40826 ft | 465 kts | 176° |
| 2026-04-26 16:57 | 12.32716 | 8.46752 | 40827 ft | 466 kts | 176° |
| 2026-04-26 16:58 | 12.27354 | 8.47276 | 40832 ft | 466 kts | 176° |
| 2026-04-26 16:59 | 12.16585 | 8.48330 | 40831 ft | 468 kts | 176° |
| 2026-04-26 17:00 | 12.03663 | 8.48586 | 40850 ft | 464 kts | 197° |
| 2026-04-26 17:00 | 11.97922 | 8.45667 | 40853 ft | 461 kts | 216° |
| 2026-04-26 17:00 | 11.95346 | 8.43759 | 40821 ft | 463 kts | 217° |
| 2026-04-26 17:01 | 11.90154 | 8.39837 | 40826 ft | 465 kts | 217° |
| 2026-04-26 17:01 | 11.84907 | 8.35924 | 40827 ft | 467 kts | 216° |
| 2026-04-26 17:02 | 11.79631 | 8.32046 | 40876 ft | 467 kts | 216° |
| 2026-04-26 17:02 | 11.74381 | 8.28208 | 40868 ft | 467 kts | 216° |
| 2026-04-26 17:03 | 11.69102 | 8.24353 | 40869 ft | 465 kts | 216° |
| 2026-04-26 17:03 | 11.63842 | 8.20511 | 40871 ft | 465 kts | 216° |
| 2026-04-26 17:04 | 11.58592 | 8.16677 | 40884 ft | 464 kts | 216° |
| 2026-04-26 17:04 | 11.53336 | 8.12840 | 40876 ft | 464 kts | 216° |
| 2026-04-26 17:05 | 11.48119 | 8.09034 | 40885 ft | 463 kts | 216° |
| 2026-04-26 17:05 | 11.42885 | 8.05216 | 40886 ft | 462 kts | 216° |
| 2026-04-26 17:06 | 11.37649 | 8.01399 | 40893 ft | 462 kts | 216° |
| 2026-04-26 17:06 | 11.32437 | 7.97601 | 40873 ft | 458 kts | 216° |
| 2026-04-26 17:07 | 11.27252 | 7.93825 | 40906 ft | 460 kts | 216° |
| 2026-04-26 17:07 | 11.22021 | 7.90017 | 40902 ft | 462 kts | 216° |
| 2026-04-26 17:08 | 11.16844 | 7.86250 | 40898 ft | 459 kts | 216° |
| 2026-04-26 17:08 | 11.11642 | 7.82466 | 40894 ft | 460 kts | 216° |
| 2026-04-26 17:09 | 11.07289 | 7.79301 | 40895 ft | 463 kts | 216° |
| 2026-04-26 17:09 | 11.01156 | 7.74844 | 40899 ft | 464 kts | 216° |
| 2026-04-26 17:10 | 10.98524 | 7.72932 | 40678 ft | 464 kts | 216° |
| 2026-04-26 17:10 | 10.95895 | 7.71023 | 40211 ft | 464 kts | 216° |
| 2026-04-26 17:10 | 10.93302 | 7.69140 | 39619 ft | 464 kts | 216° |
| 2026-04-26 17:10 | 10.90668 | 7.67228 | 38978 ft | 465 kts | 216° |
| 2026-04-26 17:11 | 10.88023 | 7.65308 | 38256 ft | 468 kts | 216° |
| 2026-04-26 17:11 | 10.85365 | 7.63378 | 37491 ft | 469 kts | 216° |
| 2026-04-26 17:11 | 10.82700 | 7.61444 | 36767 ft | 470 kts | 216° |
| 2026-04-26 17:11 | 10.80033 | 7.59509 | 36022 ft | 472 kts | 216° |
| 2026-04-26 17:12 | 10.74654 | 7.55609 | 34295 ft | 478 kts | 216° |
| 2026-04-26 17:12 | 10.71936 | 7.53638 | 33368 ft | 482 kts | 216° |
| 2026-04-26 17:13 | 10.66552 | 7.49736 | 32064 ft | 474 kts | 216° |
| 2026-04-26 17:13 | 10.63840 | 7.47780 | 31450 ft | 470 kts | 214° |
| 2026-04-26 17:13 | 10.58026 | 7.44959 | 30231 ft | 465 kts | 198° |
| 2026-04-26 17:14 | 10.54903 | 7.44142 | 29558 ft | 463 kts | 190° |
| 2026-04-26 17:14 | 10.48519 | 7.43440 | 28156 ft | 457 kts | 185° |
| 2026-04-26 17:14 | 10.45354 | 7.43151 | 27514 ft | 455 kts | 185° |
| 2026-04-26 17:15 | 10.39087 | 7.42554 | 26220 ft | 450 kts | 185° |
| 2026-04-26 17:15 | 10.35977 | 7.42241 | 25578 ft | 448 kts | 185° |
| 2026-04-26 17:15 | 10.32872 | 7.41922 | 24917 ft | 447 kts | 185° |
| 2026-04-26 17:16 | 10.29777 | 7.41600 | 24266 ft | 447 kts | 185° |
| 2026-04-26 17:16 | 10.26692 | 7.41278 | 23629 ft | 446 kts | 185° |
| 2026-04-26 17:16 | 10.23602 | 7.40955 | 22889 ft | 446 kts | 185° |
| 2026-04-26 17:16 | 10.20520 | 7.40634 | 22211 ft | 443 kts | 185° |
| 2026-04-26 17:17 | 10.17462 | 7.40315 | 21562 ft | 440 kts | 185° |
| 2026-04-26 17:17 | 10.14426 | 7.40000 | 20936 ft | 437 kts | 185° |
| 2026-04-26 17:17 | 10.11450 | 7.39690 | 20326 ft | 434 kts | 184° |
| 2026-04-26 17:17 | 10.08447 | 7.39378 | 19704 ft | 432 kts | 184° |
| 2026-04-26 17:18 | 10.05459 | 7.39068 | 19082 ft | 430 kts | 184° |
| 2026-04-26 17:18 | 10.02483 | 7.38759 | 18471 ft | 429 kts | 184° |
| 2026-04-26 17:18 | 9.99520 | 7.38451 | 17807 ft | 427 kts | 184° |
| 2026-04-26 17:18 | 9.96575 | 7.38146 | 17157 ft | 424 kts | 184° |
| 2026-04-26 17:19 | 9.90745 | 7.37539 | 15961 ft | 418 kts | 184° |
| 2026-04-26 17:19 | 9.87844 | 7.37239 | 15372 ft | 415 kts | 183° |
| 2026-04-26 17:19 | 9.84979 | 7.37069 | 14792 ft | 411 kts | 178° |
| 2026-04-26 17:20 | 9.82133 | 7.37109 | 14217 ft | 408 kts | 176° |
| 2026-04-26 17:20 | 9.81210 | 7.37129 | 14027 ft | 408 kts | 176° |
| 2026-04-26 17:20 | 9.76506 | 7.37239 | 12995 ft | 405 kts | 175° |
| 2026-04-26 17:20 | 9.73786 | 7.37302 | 12422 ft | 373 kts | 175° |
| 2026-04-26 17:21 | 9.71269 | 7.37355 | 11877 ft | 357 kts | 175° |
| 2026-04-26 17:21 | 9.68777 | 7.37412 | 11367 ft | 359 kts | 175° |
| 2026-04-26 17:21 | 9.66264 | 7.37464 | 10845 ft | 362 kts | 175° |
| 2026-04-26 17:21 | 9.63749 | 7.37505 | 10523 ft | 358 kts | 175° |
| 2026-04-26 17:22 | 9.61289 | 7.37543 | 10363 ft | 347 kts | 175° |
| 2026-04-26 17:22 | 9.59000 | 7.37575 | 10179 ft | 313 kts | 175° |
| 2026-04-26 17:22 | 9.56925 | 7.37602 | 10053 ft | 288 kts | 174° |
| 2026-04-26 17:22 | 9.54933 | 7.37636 | 9950 ft | 281 kts | 174° |
| 2026-04-26 17:23 | 9.53014 | 7.37669 | 9696 ft | 281 kts | 174° |
| 2026-04-26 17:23 | 9.51051 | 7.37703 | 9364 ft | 283 kts | 174° |
| 2026-04-26 17:23 | 9.49073 | 7.37739 | 9026 ft | 285 kts | 175° |
| 2026-04-26 17:23 | 9.47077 | 7.37774 | 8692 ft | 287 kts | 175° |
| 2026-04-26 17:24 | 9.45076 | 7.37808 | 8348 ft | 289 kts | 175° |
| 2026-04-26 17:24 | 9.43057 | 7.37844 | 8012 ft | 291 kts | 176° |
| 2026-04-26 17:24 | 9.41023 | 7.37880 | 7673 ft | 293 kts | 176° |
| 2026-04-26 17:24 | 9.39011 | 7.37913 | 7305 ft | 280 kts | 176° |
| 2026-04-26 17:25 | 9.37124 | 7.37943 | 6973 ft | 261 kts | 176° |
| 2026-04-26 17:25 | 9.35369 | 7.37971 | 6687 ft | 256 kts | 176° |
| 2026-04-26 17:25 | 9.33556 | 7.38005 | 6400 ft | 255 kts | 176° |
| 2026-04-26 17:25 | 9.31863 | 7.38032 | 6073 ft | 238 kts | 177° |
| 2026-04-26 17:26 | 9.30270 | 7.38057 | 5827 ft | 217 kts | 176° |
| 2026-04-26 17:26 | 9.28801 | 7.38082 | 5682 ft | 208 kts | 176° |
| 2026-04-26 17:26 | 9.27402 | 7.38107 | 5409 ft | 192 kts | 177° |
| 2026-04-26 17:26 | 9.26086 | 7.38130 | 5196 ft | 189 kts | 177° |
| 2026-04-26 17:27 | 9.24774 | 7.38154 | 4989 ft | 188 kts | 178° |
| 2026-04-26 17:27 | 9.23472 | 7.38176 | 4870 ft | 188 kts | 178° |
| 2026-04-26 17:27 | 9.22167 | 7.38199 | 4763 ft | 187 kts | 178° |
| 2026-04-26 17:27 | 9.20871 | 7.38221 | 4685 ft | 184 kts | 178° |
| 2026-04-26 17:28 | 9.19601 | 7.38242 | 4602 ft | 186 kts | 178° |
| 2026-04-26 17:28 | 9.18310 | 7.38246 | 4511 ft | 184 kts | 186° |
| 2026-04-26 17:28 | 9.17135 | 7.37775 | 4433 ft | 182 kts | 208° |
| 2026-04-26 17:28 | 9.16017 | 7.37125 | 4269 ft | 187 kts | 210° |
| 2026-04-26 17:29 | 9.14933 | 7.36420 | 4047 ft | 184 kts | 212° |
| 2026-04-26 17:29 | 9.14576 | 7.36174 | 3972 ft | 183 kts | 213° |
| 2026-04-26 17:29 | 9.12866 | 7.34967 | 3586 ft | 174 kts | 213° |
| 2026-04-26 17:29 | 9.11923 | 7.34299 | 3427 ft | 157 kts | 213° |
| 2026-04-26 17:30 | 9.11046 | 7.33674 | 3184 ft | 147 kts | 213° |
| 2026-04-26 17:30 | 9.10238 | 7.33099 | 3012 ft | 132 kts | 213° |
| 2026-04-26 17:30 | 9.09509 | 7.32581 | 2859 ft | 131 kts | 213° |
| 2026-04-26 17:30 | 9.08782 | 7.32066 | 2698 ft | 131 kts | 213° |
| 2026-04-26 17:31 | 9.08010 | 7.31517 | 2512 ft | 135 kts | 213° |
| 2026-04-26 17:31 | 9.07253 | 7.30980 | 2361 ft | 135 kts | 212° |
| 2026-04-26 17:31 | 9.06489 | 7.30437 | 2189 ft | 133 kts | 214° |
| 2026-04-26 17:31 | 9.05735 | 7.29900 | 2028 ft | 130 kts | 213° |
| 2026-04-26 17:32 | 9.04992 | 7.29377 | 1873 ft | 134 kts | 212° |
| 2026-04-26 17:32 | 9.04221 | 7.28842 | 1695 ft | 134 kts | 212° |
| 2026-04-26 17:32 | 9.03443 | 7.28295 | 1499 ft | 137 kts | 214° |
| 2026-04-26 17:32 | 9.02674 | 7.27730 | 1323 ft | 135 kts | 214° |
| 2026-04-26 17:33 | 9.01905 | 7.27185 | 1152 ft | 135 kts | 214° |
| 2026-04-26 17:33 | 9.01207 | 7.26693 | 1122 ft | 104 kts | 215° |
| 2026-04-26 17:33 | 9.00782 | 7.26390 | 1109 ft | 19 kts | 215° |
| 2026-04-26 17:34 | 9.00656 | 7.26436 | 1108 ft | 0 kts | 126° |
| 2026-04-26 17:34 | 9.00655 | 7.26438 | 1108 ft | 2 kts | 126° |
| 2026-04-26 17:35 | 9.00646 | 7.26450 | 1111 ft | 5 kts | 126° |
| 2026-04-26 17:35 | 9.00620 | 7.26488 | 1114 ft | 8 kts | 125° |
| 2026-04-26 17:35 | 9.00570 | 7.26555 | 1116 ft | 9 kts | 132° |
| 2026-04-26 17:35 | 9.00537 | 7.26585 | 1118 ft | 9 kts | 139° |
| 2026-04-26 17:36 | 9.00480 | 7.26626 | 1115 ft | 10 kts | 148° |
| 2026-04-26 17:36 | 9.00450 | 7.26689 | 1131 ft | 11 kts | 85° |
| 2026-04-26 17:36 | 9.00501 | 7.26751 | 1131 ft | 13 kts | 20° |
| 2026-04-26 17:36 | 9.00571 | 7.26754 | 1128 ft | 0 kts | 359° |